sensor_id;sensor_type;location;lat;lon;timestamp;P1;durP1;ratioP1;P2;durP2;ratioP2
56667;SDS011;42542;48.360;10.958;2024-02-26T00:01:40;9.02;;;3.45;;
56667;SDS011;42542;48.360;10.958;2024-02-26T00:04:42;9.18;;;3.63;;
56667;SDS011;42542;48.360;10.958;2024-02-26T00:07:45;11.20;;;3.58;;
56667;SDS011;42542;48.360;10.958;2024-02-26T00:10:47;11.02;;;3.20;;
56667;SDS011;42542;48.360;10.958;2024-02-26T00:13:48;9.85;;;3.30;;
56667;SDS011;42542;48.360;10.958;2024-02-26T00:16:50;9.77;;;3.37;;
56667;SDS011;42542;48.360;10.958;2024-02-26T00:19:52;9.90;;;3.53;;
56667;SDS011;42542;48.360;10.958;2024-02-26T00:22:55;10.10;;;3.50;;
56667;SDS011;42542;48.360;10.958;2024-02-26T00:25:57;8.73;;;2.97;;
56667;SDS011;42542;48.360;10.958;2024-02-26T00:28:59;9.02;;;3.35;;
56667;SDS011;42542;48.360;10.958;2024-02-26T00:32:01;8.98;;;3.58;;
56667;SDS011;42542;48.360;10.958;2024-02-26T00:35:03;9.75;;;3.67;;
56667;SDS011;42542;48.360;10.958;2024-02-26T00:38:05;9.13;;;3.60;;
56667;SDS011;42542;48.360;10.958;2024-02-26T00:41:08;10.50;;;3.70;;
56667;SDS011;42542;48.360;10.958;2024-02-26T00:44:09;9.10;;;3.40;;
56667;SDS011;42542;48.360;10.958;2024-02-26T00:47:11;9.10;;;3.47;;
56667;SDS011;42542;48.360;10.958;2024-02-26T00:50:13;8.98;;;3.50;;
56667;SDS011;42542;48.360;10.958;2024-02-26T00:53:15;9.70;;;3.55;;
56667;SDS011;42542;48.360;10.958;2024-02-26T00:56:16;10.07;;;3.47;;
56667;SDS011;42542;48.360;10.958;2024-02-26T00:59:19;11.70;;;3.80;;
56667;SDS011;42542;48.360;10.958;2024-02-26T01:02:20;10.32;;;3.63;;
56667;SDS011;42542;48.360;10.958;2024-02-26T01:05:23;9.45;;;3.25;;
56667;SDS011;42542;48.360;10.958;2024-02-26T01:08:25;10.02;;;3.80;;
56667;SDS011;42542;48.360;10.958;2024-02-26T01:11:27;9.43;;;3.72;;
56667;SDS011;42542;48.360;10.958;2024-02-26T01:14:29;10.93;;;4.18;;
56667;SDS011;42542;48.360;10.958;2024-02-26T01:17:32;10.10;;;3.70;;
56667;SDS011;42542;48.360;10.958;2024-02-26T01:20:34;11.40;;;3.72;;
56667;SDS011;42542;48.360;10.958;2024-02-26T01:23:36;11.75;;;3.92;;
56667;SDS011;42542;48.360;10.958;2024-02-26T01:26:38;11.17;;;4.33;;
56667;SDS011;42542;48.360;10.958;2024-02-26T01:29:40;10.50;;;3.85;;
56667;SDS011;42542;48.360;10.958;2024-02-26T01:32:42;11.20;;;3.97;;
56667;SDS011;42542;48.360;10.958;2024-02-26T01:35:44;11.32;;;3.78;;
56667;SDS011;42542;48.360;10.958;2024-02-26T01:38:45;12.02;;;3.90;;
56667;SDS011;42542;48.360;10.958;2024-02-26T01:41:48;11.30;;;4.00;;
56667;SDS011;42542;48.360;10.958;2024-02-26T01:44:50;10.80;;;4.35;;
56667;SDS011;42542;48.360;10.958;2024-02-26T01:47:52;10.33;;;3.93;;
56667;SDS011;42542;48.360;10.958;2024-02-26T01:50:55;10.77;;;4.10;;
56667;SDS011;42542;48.360;10.958;2024-02-26T01:53:57;11.43;;;4.20;;
56667;SDS011;42542;48.360;10.958;2024-02-26T01:57:01;11.23;;;4.30;;
56667;SDS011;42542;48.360;10.958;2024-02-26T02:00:05;13.65;;;4.43;;
56667;SDS011;42542;48.360;10.958;2024-02-26T02:03:09;13.27;;;4.45;;
56667;SDS011;42542;48.360;10.958;2024-02-26T02:06:12;11.93;;;3.92;;
56667;SDS011;42542;48.360;10.958;2024-02-26T02:09:14;11.30;;;4.40;;
56667;SDS011;42542;48.360;10.958;2024-02-26T02:12:16;10.50;;;4.13;;
56667;SDS011;42542;48.360;10.958;2024-02-26T02:15:18;13.75;;;4.28;;
56667;SDS011;42542;48.360;10.958;2024-02-26T02:18:20;13.50;;;4.90;;
56667;SDS011;42542;48.360;10.958;2024-02-26T02:21:23;12.10;;;4.57;;
56667;SDS011;42542;48.360;10.958;2024-02-26T02:24:25;12.25;;;4.70;;
56667;SDS011;42542;48.360;10.958;2024-02-26T02:27:28;14.30;;;5.17;;
56667;SDS011;42542;48.360;10.958;2024-02-26T02:30:30;14.35;;;5.40;;
56667;SDS011;42542;48.360;10.958;2024-02-26T02:33:35;12.60;;;4.90;;
56667;SDS011;42542;48.360;10.958;2024-02-26T02:36:48;11.77;;;4.28;;
56667;SDS011;42542;48.360;10.958;2024-02-26T02:39:50;14.38;;;4.28;;
56667;SDS011;42542;48.360;10.958;2024-02-26T02:42:52;11.40;;;4.60;;
56667;SDS011;42542;48.360;10.958;2024-02-26T02:45:54;11.93;;;4.03;;
56667;SDS011;42542;48.360;10.958;2024-02-26T02:48:55;11.93;;;4.60;;
56667;SDS011;42542;48.360;10.958;2024-02-26T02:51:58;12.98;;;4.47;;
56667;SDS011;42542;48.360;10.958;2024-02-26T02:55:00;11.85;;;4.25;;
56667;SDS011;42542;48.360;10.958;2024-02-26T02:58:05;11.80;;;4.60;;
56667;SDS011;42542;48.360;10.958;2024-02-26T03:01:06;12.38;;;4.70;;
56667;SDS011;42542;48.360;10.958;2024-02-26T03:04:09;12.43;;;4.22;;
56667;SDS011;42542;48.360;10.958;2024-02-26T03:07:11;9.98;;;3.78;;
56667;SDS011;42542;48.360;10.958;2024-02-26T03:10:15;12.82;;;4.20;;
56667;SDS011;42542;48.360;10.958;2024-02-26T03:13:17;10.35;;;4.07;;
56667;SDS011;42542;48.360;10.958;2024-02-26T03:16:19;11.70;;;4.53;;
56667;SDS011;42542;48.360;10.958;2024-02-26T03:19:20;10.53;;;4.00;;
56667;SDS011;42542;48.360;10.958;2024-02-26T03:22:23;12.65;;;4.72;;
56667;SDS011;42542;48.360;10.958;2024-02-26T03:25:25;11.65;;;3.88;;
56667;SDS011;42542;48.360;10.958;2024-02-26T03:28:27;11.27;;;4.13;;
56667;SDS011;42542;48.360;10.958;2024-02-26T03:31:28;12.73;;;4.43;;
56667;SDS011;42542;48.360;10.958;2024-02-26T03:34:31;11.85;;;4.07;;
56667;SDS011;42542;48.360;10.958;2024-02-26T03:37:35;11.80;;;4.35;;
56667;SDS011;42542;48.360;10.958;2024-02-26T03:40:37;13.80;;;4.07;;
56667;SDS011;42542;48.360;10.958;2024-02-26T03:43:39;13.65;;;4.78;;
56667;SDS011;42542;48.360;10.958;2024-02-26T03:46:41;12.05;;;4.10;;
56667;SDS011;42542;48.360;10.958;2024-02-26T03:49:44;10.93;;;3.83;;
56667;SDS011;42542;48.360;10.958;2024-02-26T03:52:46;9.95;;;3.90;;
56667;SDS011;42542;48.360;10.958;2024-02-26T03:55:48;12.00;;;4.10;;
56667;SDS011;42542;48.360;10.958;2024-02-26T03:58:51;11.07;;;3.93;;
56667;SDS011;42542;48.360;10.958;2024-02-26T04:01:52;11.85;;;4.20;;
56667;SDS011;42542;48.360;10.958;2024-02-26T04:04:55;11.07;;;3.95;;
56667;SDS011;42542;48.360;10.958;2024-02-26T04:07:56;10.77;;;3.83;;
56667;SDS011;42542;48.360;10.958;2024-02-26T04:10:59;10.75;;;4.10;;
56667;SDS011;42542;48.360;10.958;2024-02-26T04:14:02;12.25;;;4.38;;
56667;SDS011;42542;48.360;10.958;2024-02-26T04:17:04;10.63;;;4.07;;
56667;SDS011;42542;48.360;10.958;2024-02-26T04:20:06;13.20;;;4.80;;
56667;SDS011;42542;48.360;10.958;2024-02-26T04:23:08;11.63;;;4.32;;
56667;SDS011;42542;48.360;10.958;2024-02-26T04:26:10;12.55;;;4.40;;
56667;SDS011;42542;48.360;10.958;2024-02-26T04:29:13;12.10;;;4.60;;
56667;SDS011;42542;48.360;10.958;2024-02-26T04:32:14;12.20;;;4.28;;
56667;SDS011;42542;48.360;10.958;2024-02-26T04:35:17;10.95;;;4.13;;
56667;SDS011;42542;48.360;10.958;2024-02-26T04:38:18;17.25;;;4.50;;
56667;SDS011;42542;48.360;10.958;2024-02-26T04:41:20;12.32;;;3.90;;
56667;SDS011;42542;48.360;10.958;2024-02-26T04:44:22;12.57;;;4.63;;
56667;SDS011;42542;48.360;10.958;2024-02-26T04:47:24;11.95;;;4.40;;
56667;SDS011;42542;48.360;10.958;2024-02-26T04:50:26;13.37;;;5.20;;
56667;SDS011;42542;48.360;10.958;2024-02-26T04:53:28;14.25;;;5.22;;
56667;SDS011;42542;48.360;10.958;2024-02-26T04:56:30;12.75;;;4.90;;
56667;SDS011;42542;48.360;10.958;2024-02-26T04:59:32;14.20;;;4.73;;
56667;SDS011;42542;48.360;10.958;2024-02-26T05:02:34;15.07;;;5.00;;
56667;SDS011;42542;48.360;10.958;2024-02-26T05:05:39;12.40;;;4.53;;
56667;SDS011;42542;48.360;10.958;2024-02-26T05:08:43;12.60;;;4.60;;
56667;SDS011;42542;48.360;10.958;2024-02-26T05:11:45;11.90;;;4.38;;
56667;SDS011;42542;48.360;10.958;2024-02-26T05:14:48;12.65;;;4.53;;
56667;SDS011;42542;48.360;10.958;2024-02-26T05:17:49;12.52;;;4.60;;
56667;SDS011;42542;48.360;10.958;2024-02-26T05:20:52;11.07;;;4.40;;
56667;SDS011;42542;48.360;10.958;2024-02-26T05:23:53;12.68;;;4.97;;
56667;SDS011;42542;48.360;10.958;2024-02-26T05:26:56;13.30;;;5.28;;
56667;SDS011;42542;48.360;10.958;2024-02-26T05:29:58;14.13;;;5.57;;
56667;SDS011;42542;48.360;10.958;2024-02-26T05:32:59;13.93;;;4.72;;
56667;SDS011;42542;48.360;10.958;2024-02-26T05:36:01;11.80;;;4.68;;
56667;SDS011;42542;48.360;10.958;2024-02-26T05:39:05;15.95;;;5.32;;
56667;SDS011;42542;48.360;10.958;2024-02-26T05:42:08;14.18;;;5.18;;
56667;SDS011;42542;48.360;10.958;2024-02-26T05:45:10;12.48;;;4.90;;
56667;SDS011;42542;48.360;10.958;2024-02-26T05:48:13;13.88;;;4.82;;
56667;SDS011;42542;48.360;10.958;2024-02-26T05:51:14;14.10;;;5.07;;
56667;SDS011;42542;48.360;10.958;2024-02-26T05:54:16;13.38;;;5.55;;
56667;SDS011;42542;48.360;10.958;2024-02-26T05:57:18;13.52;;;4.80;;
56667;SDS011;42542;48.360;10.958;2024-02-26T06:00:21;15.27;;;5.20;;
56667;SDS011;42542;48.360;10.958;2024-02-26T06:03:23;14.45;;;5.50;;
56667;SDS011;42542;48.360;10.958;2024-02-26T06:06:25;13.02;;;4.90;;
56667;SDS011;42542;48.360;10.958;2024-02-26T06:09:27;15.15;;;5.75;;
56667;SDS011;42542;48.360;10.958;2024-02-26T06:12:29;13.75;;;5.22;;
56667;SDS011;42542;48.360;10.958;2024-02-26T06:15:32;15.05;;;5.75;;
56667;SDS011;42542;48.360;10.958;2024-02-26T06:18:34;15.20;;;5.22;;
56667;SDS011;42542;48.360;10.958;2024-02-26T06:21:36;15.77;;;5.47;;
56667;SDS011;42542;48.360;10.958;2024-02-26T06:24:38;12.77;;;5.10;;
56667;SDS011;42542;48.360;10.958;2024-02-26T06:27:40;17.00;;;5.30;;
56667;SDS011;42542;48.360;10.958;2024-02-26T06:30:42;13.80;;;5.20;;
56667;SDS011;42542;48.360;10.958;2024-02-26T06:33:45;14.85;;;5.57;;
56667;SDS011;42542;48.360;10.958;2024-02-26T06:36:47;17.95;;;6.65;;
56667;SDS011;42542;48.360;10.958;2024-02-26T06:39:49;14.27;;;6.10;;
56667;SDS011;42542;48.360;10.958;2024-02-26T06:42:50;15.82;;;4.97;;
56667;SDS011;42542;48.360;10.958;2024-02-26T06:45:52;12.80;;;5.10;;
56667;SDS011;42542;48.360;10.958;2024-02-26T06:48:54;15.32;;;5.15;;
56667;SDS011;42542;48.360;10.958;2024-02-26T06:51:57;15.93;;;5.73;;
56667;SDS011;42542;48.360;10.958;2024-02-26T06:54:58;13.18;;;5.30;;
56667;SDS011;42542;48.360;10.958;2024-02-26T06:58:01;14.35;;;5.13;;
56667;SDS011;42542;48.360;10.958;2024-02-26T07:01:03;14.03;;;5.37;;
56667;SDS011;42542;48.360;10.958;2024-02-26T07:04:05;17.40;;;5.32;;
56667;SDS011;42542;48.360;10.958;2024-02-26T07:07:07;12.63;;;5.07;;
56667;SDS011;42542;48.360;10.958;2024-02-26T07:10:10;15.60;;;6.13;;
56667;SDS011;42542;48.360;10.958;2024-02-26T07:13:13;15.20;;;5.50;;
56667;SDS011;42542;48.360;10.958;2024-02-26T07:16:15;16.17;;;5.47;;
56667;SDS011;42542;48.360;10.958;2024-02-26T07:19:17;14.10;;;5.28;;
56667;SDS011;42542;48.360;10.958;2024-02-26T07:22:19;15.40;;;5.60;;
56667;SDS011;42542;48.360;10.958;2024-02-26T07:25:21;15.13;;;5.40;;
56667;SDS011;42542;48.360;10.958;2024-02-26T07:28:23;15.43;;;5.45;;
56667;SDS011;42542;48.360;10.958;2024-02-26T07:31:25;15.47;;;5.17;;
56667;SDS011;42542;48.360;10.958;2024-02-26T07:34:28;14.65;;;4.97;;
56667;SDS011;42542;48.360;10.958;2024-02-26T07:37:31;15.27;;;5.15;;
56667;SDS011;42542;48.360;10.958;2024-02-26T07:40:33;14.38;;;5.43;;
56667;SDS011;42542;48.360;10.958;2024-02-26T07:43:35;14.75;;;5.10;;
56667;SDS011;42542;48.360;10.958;2024-02-26T07:46:37;14.15;;;4.90;;
56667;SDS011;42542;48.360;10.958;2024-02-26T07:49:39;13.35;;;4.75;;
56667;SDS011;42542;48.360;10.958;2024-02-26T07:52:42;14.07;;;5.23;;
56667;SDS011;42542;48.360;10.958;2024-02-26T07:55:45;14.90;;;5.32;;
56667;SDS011;42542;48.360;10.958;2024-02-26T07:58:49;13.73;;;5.32;;
56667;SDS011;42542;48.360;10.958;2024-02-26T08:01:50;12.43;;;4.33;;
56667;SDS011;42542;48.360;10.958;2024-02-26T08:04:59;14.30;;;5.45;;
56667;SDS011;42542;48.360;10.958;2024-02-26T08:08:01;18.90;;;5.07;;
56667;SDS011;42542;48.360;10.958;2024-02-26T08:11:02;15.32;;;5.45;;
56667;SDS011;42542;48.360;10.958;2024-02-26T08:14:05;14.95;;;5.32;;
56667;SDS011;42542;48.360;10.958;2024-02-26T08:17:07;13.52;;;5.13;;
56667;SDS011;42542;48.360;10.958;2024-02-26T08:20:09;15.95;;;5.25;;
56667;SDS011;42542;48.360;10.958;2024-02-26T08:23:12;13.43;;;4.90;;
56667;SDS011;42542;48.360;10.958;2024-02-26T08:26:14;13.05;;;5.03;;
56667;SDS011;42542;48.360;10.958;2024-02-26T08:29:15;14.55;;;5.43;;
56667;SDS011;42542;48.360;10.958;2024-02-26T08:32:17;15.63;;;6.03;;
56667;SDS011;42542;48.360;10.958;2024-02-26T08:35:19;14.32;;;5.93;;
56667;SDS011;42542;48.360;10.958;2024-02-26T08:38:22;15.35;;;5.35;;
56667;SDS011;42542;48.360;10.958;2024-02-26T08:41:24;15.23;;;5.57;;
56667;SDS011;42542;48.360;10.958;2024-02-26T08:44:27;16.25;;;5.30;;
56667;SDS011;42542;48.360;10.958;2024-02-26T08:47:28;14.02;;;4.95;;
56667;SDS011;42542;48.360;10.958;2024-02-26T08:50:31;14.65;;;5.30;;
56667;SDS011;42542;48.360;10.958;2024-02-26T08:53:32;15.20;;;5.30;;
56667;SDS011;42542;48.360;10.958;2024-02-26T08:56:43;13.38;;;4.90;;
56667;SDS011;42542;48.360;10.958;2024-02-26T08:59:45;12.80;;;4.63;;
56667;SDS011;42542;48.360;10.958;2024-02-26T09:02:47;13.27;;;4.93;;
56667;SDS011;42542;48.360;10.958;2024-02-26T09:05:50;11.93;;;4.85;;
56667;SDS011;42542;48.360;10.958;2024-02-26T09:08:53;12.55;;;4.47;;
56667;SDS011;42542;48.360;10.958;2024-02-26T09:11:54;13.02;;;5.07;;
56667;SDS011;42542;48.360;10.958;2024-02-26T09:14:56;15.70;;;4.97;;
56667;SDS011;42542;48.360;10.958;2024-02-26T09:17:59;12.90;;;4.53;;
56667;SDS011;42542;48.360;10.958;2024-02-26T09:21:05;10.68;;;4.53;;
56667;SDS011;42542;48.360;10.958;2024-02-26T09:24:07;12.10;;;4.60;;
56667;SDS011;42542;48.360;10.958;2024-02-26T09:27:10;15.43;;;4.60;;
56667;SDS011;42542;48.360;10.958;2024-02-26T09:30:12;11.60;;;4.63;;
56667;SDS011;42542;48.360;10.958;2024-02-26T09:33:15;12.40;;;4.53;;
56667;SDS011;42542;48.360;10.958;2024-02-26T09:36:17;14.55;;;4.47;;
56667;SDS011;42542;48.360;10.958;2024-02-26T09:39:19;14.45;;;5.65;;
56667;SDS011;42542;48.360;10.958;2024-02-26T09:42:25;15.20;;;5.40;;
56667;SDS011;42542;48.360;10.958;2024-02-26T09:45:28;13.25;;;5.10;;
56667;SDS011;42542;48.360;10.958;2024-02-26T09:48:34;13.13;;;5.45;;
56667;SDS011;42542;48.360;10.958;2024-02-26T09:51:38;13.88;;;5.35;;
56667;SDS011;42542;48.360;10.958;2024-02-26T09:54:40;12.53;;;4.60;;
56667;SDS011;42542;48.360;10.958;2024-02-26T09:57:46;13.05;;;4.40;;
56667;SDS011;42542;48.360;10.958;2024-02-26T10:00:53;10.35;;;4.38;;
56667;SDS011;42542;48.360;10.958;2024-02-26T10:04:00;12.40;;;4.60;;
56667;SDS011;42542;48.360;10.958;2024-02-26T10:07:02;11.55;;;4.30;;
56667;SDS011;42542;48.360;10.958;2024-02-26T10:10:05;9.77;;;4.15;;
56667;SDS011;42542;48.360;10.958;2024-02-26T10:13:08;10.23;;;3.83;;
56667;SDS011;42542;48.360;10.958;2024-02-26T10:16:11;10.30;;;4.32;;
56667;SDS011;42542;48.360;10.958;2024-02-26T10:19:27;11.73;;;4.28;;
56667;SDS011;42542;48.360;10.958;2024-02-26T10:22:30;10.18;;;4.00;;
56667;SDS011;42542;48.360;10.958;2024-02-26T10:25:33;12.63;;;4.50;;
56667;SDS011;42542;48.360;10.958;2024-02-26T10:28:34;12.55;;;4.50;;
56667;SDS011;42542;48.360;10.958;2024-02-26T10:31:36;10.63;;;4.05;;
56667;SDS011;42542;48.360;10.958;2024-02-26T10:34:38;9.70;;;3.83;;
56667;SDS011;42542;48.360;10.958;2024-02-26T10:37:43;9.93;;;3.92;;
56667;SDS011;42542;48.360;10.958;2024-02-26T10:40:45;12.05;;;4.40;;
56667;SDS011;42542;48.360;10.958;2024-02-26T10:43:47;13.10;;;4.85;;
56667;SDS011;42542;48.360;10.958;2024-02-26T10:46:49;14.27;;;4.43;;
56667;SDS011;42542;48.360;10.958;2024-02-26T10:49:52;10.30;;;4.20;;
56667;SDS011;42542;48.360;10.958;2024-02-26T10:52:54;11.35;;;4.40;;
56667;SDS011;42542;48.360;10.958;2024-02-26T10:56:02;11.67;;;4.87;;
56667;SDS011;42542;48.360;10.958;2024-02-26T10:59:07;11.70;;;4.55;;
56667;SDS011;42542;48.360;10.958;2024-02-26T11:02:12;13.13;;;4.95;;
56667;SDS011;42542;48.360;10.958;2024-02-26T11:05:15;12.23;;;4.80;;
56667;SDS011;42542;48.360;10.958;2024-02-26T11:08:19;12.65;;;5.18;;
56667;SDS011;42542;48.360;10.958;2024-02-26T11:11:23;14.30;;;5.15;;
56667;SDS011;42542;48.360;10.958;2024-02-26T11:14:25;14.38;;;4.88;;
56667;SDS011;42542;48.360;10.958;2024-02-26T11:17:28;15.60;;;5.28;;
56667;SDS011;42542;48.360;10.958;2024-02-26T11:20:33;12.95;;;4.95;;
56667;SDS011;42542;48.360;10.958;2024-02-26T11:23:40;11.65;;;4.63;;
56667;SDS011;42542;48.360;10.958;2024-02-26T11:26:43;12.23;;;5.03;;
56667;SDS011;42542;48.360;10.958;2024-02-26T11:29:51;11.35;;;5.00;;
56667;SDS011;42542;48.360;10.958;2024-02-26T11:32:55;11.15;;;4.65;;
56667;SDS011;42542;48.360;10.958;2024-02-26T11:35:58;11.37;;;4.50;;
56667;SDS011;42542;48.360;10.958;2024-02-26T11:38:59;9.85;;;3.85;;
56667;SDS011;42542;48.360;10.958;2024-02-26T11:42:06;11.68;;;4.30;;
56667;SDS011;42542;48.360;10.958;2024-02-26T11:48:43;8.63;;;3.50;;
56667;SDS011;42542;48.360;10.958;2024-02-26T11:51:50;9.13;;;3.60;;
56667;SDS011;42542;48.360;10.958;2024-02-26T11:54:53;10.98;;;3.55;;
56667;SDS011;42542;48.360;10.958;2024-02-26T11:57:57;10.03;;;3.87;;
56667;SDS011;42542;48.360;10.958;2024-02-26T12:00:59;9.65;;;3.60;;
56667;SDS011;42542;48.360;10.958;2024-02-26T12:04:04;9.00;;;3.35;;
56667;SDS011;42542;48.360;10.958;2024-02-26T12:07:08;9.93;;;3.67;;
56667;SDS011;42542;48.360;10.958;2024-02-26T12:10:14;9.20;;;3.17;;
56667;SDS011;42542;48.360;10.958;2024-02-26T12:13:37;9.57;;;3.35;;
56667;SDS011;42542;48.360;10.958;2024-02-26T12:16:39;7.70;;;2.95;;
56667;SDS011;42542;48.360;10.958;2024-02-26T12:19:44;8.98;;;3.03;;
56667;SDS011;42542;48.360;10.958;2024-02-26T12:22:47;7.72;;;2.92;;
56667;SDS011;42542;48.360;10.958;2024-02-26T12:25:53;10.85;;;3.00;;
56667;SDS011;42542;48.360;10.958;2024-02-26T12:28:55;7.43;;;2.80;;
56667;SDS011;42542;48.360;10.958;2024-02-26T12:31:57;7.40;;;2.63;;
56667;SDS011;42542;48.360;10.958;2024-02-26T12:34:59;7.95;;;2.90;;
56667;SDS011;42542;48.360;10.958;2024-02-26T12:38:01;7.40;;;2.83;;
56667;SDS011;42542;48.360;10.958;2024-02-26T12:41:05;10.25;;;3.00;;
56667;SDS011;42542;48.360;10.958;2024-02-26T12:44:08;11.88;;;3.13;;
56667;SDS011;42542;48.360;10.958;2024-02-26T12:47:11;8.70;;;3.30;;
56667;SDS011;42542;48.360;10.958;2024-02-26T12:50:18;9.15;;;3.10;;
56667;SDS011;42542;48.360;10.958;2024-02-26T12:53:20;8.50;;;3.25;;
56667;SDS011;42542;48.360;10.958;2024-02-26T12:56:22;8.55;;;3.10;;
56667;SDS011;42542;48.360;10.958;2024-02-26T12:59:25;10.03;;;3.37;;
56667;SDS011;42542;48.360;10.958;2024-02-26T13:02:27;9.68;;;3.50;;
56667;SDS011;42542;48.360;10.958;2024-02-26T13:05:29;8.88;;;3.70;;
56667;SDS011;42542;48.360;10.958;2024-02-26T13:08:32;9.50;;;3.53;;
56667;SDS011;42542;48.360;10.958;2024-02-26T13:11:34;9.85;;;3.47;;
56667;SDS011;42542;48.360;10.958;2024-02-26T13:14:37;8.90;;;3.67;;
56667;SDS011;42542;48.360;10.958;2024-02-26T13:17:39;8.90;;;3.40;;
56667;SDS011;42542;48.360;10.958;2024-02-26T13:20:40;9.68;;;3.78;;
56667;SDS011;42542;48.360;10.958;2024-02-26T13:23:43;8.88;;;3.60;;
56667;SDS011;42542;48.360;10.958;2024-02-26T13:26:55;8.77;;;3.90;;
56667;SDS011;42542;48.360;10.958;2024-02-26T13:30:10;9.13;;;3.63;;
56667;SDS011;42542;48.360;10.958;2024-02-26T13:33:14;10.25;;;4.30;;
56667;SDS011;42542;48.360;10.958;2024-02-26T13:36:17;9.13;;;3.85;;
56667;SDS011;42542;48.360;10.958;2024-02-26T13:39:23;9.07;;;3.30;;
56667;SDS011;42542;48.360;10.958;2024-02-26T13:42:26;8.48;;;3.75;;
56667;SDS011;42542;48.360;10.958;2024-02-26T13:45:28;8.18;;;3.67;;
56667;SDS011;42542;48.360;10.958;2024-02-26T13:48:38;8.90;;;3.78;;
56667;SDS011;42542;48.360;10.958;2024-02-26T13:51:40;9.57;;;3.78;;
56667;SDS011;42542;48.360;10.958;2024-02-26T13:54:42;8.90;;;3.80;;
56667;SDS011;42542;48.360;10.958;2024-02-26T13:57:44;9.43;;;3.35;;
56667;SDS011;42542;48.360;10.958;2024-02-26T14:00:46;11.90;;;3.60;;
56667;SDS011;42542;48.360;10.958;2024-02-26T14:03:49;10.23;;;3.90;;
56667;SDS011;42542;48.360;10.958;2024-02-26T14:06:51;10.40;;;4.10;;
56667;SDS011;42542;48.360;10.958;2024-02-26T14:09:53;8.07;;;3.43;;
56667;SDS011;42542;48.360;10.958;2024-02-26T14:12:55;8.25;;;3.35;;
56667;SDS011;42542;48.360;10.958;2024-02-26T14:15:57;8.88;;;3.75;;
56667;SDS011;42542;48.360;10.958;2024-02-26T14:18:59;10.15;;;3.78;;
56667;SDS011;42542;48.360;10.958;2024-02-26T14:22:01;8.45;;;3.50;;
56667;SDS011;42542;48.360;10.958;2024-02-26T14:25:03;8.52;;;3.35;;
56667;SDS011;42542;48.360;10.958;2024-02-26T14:28:05;9.52;;;3.30;;
56667;SDS011;42542;48.360;10.958;2024-02-26T14:31:07;10.00;;;4.40;;
56667;SDS011;42542;48.360;10.958;2024-02-26T14:34:11;8.93;;;3.47;;
56667;SDS011;42542;48.360;10.958;2024-02-26T14:37:14;9.65;;;3.42;;
56667;SDS011;42542;48.360;10.958;2024-02-26T14:40:17;9.07;;;3.47;;
56667;SDS011;42542;48.360;10.958;2024-02-26T14:43:20;11.52;;;4.65;;
56667;SDS011;42542;48.360;10.958;2024-02-26T14:46:21;12.45;;;4.90;;
56667;SDS011;42542;48.360;10.958;2024-02-26T14:49:23;14.57;;;6.20;;
56667;SDS011;42542;48.360;10.958;2024-02-26T14:52:25;23.67;;;8.57;;
56667;SDS011;42542;48.360;10.958;2024-02-26T14:55:28;13.15;;;6.25;;
56667;SDS011;42542;48.360;10.958;2024-02-26T14:58:29;17.88;;;6.97;;
56667;SDS011;42542;48.360;10.958;2024-02-26T15:01:31;11.67;;;5.07;;
56667;SDS011;42542;48.360;10.958;2024-02-26T15:04:33;9.48;;;3.85;;
56667;SDS011;42542;48.360;10.958;2024-02-26T15:07:37;14.13;;;6.60;;
56667;SDS011;42542;48.360;10.958;2024-02-26T15:10:41;11.40;;;5.25;;
56667;SDS011;42542;48.360;10.958;2024-02-26T15:13:49;11.25;;;4.45;;
56667;SDS011;42542;48.360;10.958;2024-02-26T15:16:51;10.75;;;4.78;;
56667;SDS011;42542;48.360;10.958;2024-02-26T15:19:54;9.60;;;4.20;;
56667;SDS011;42542;48.360;10.958;2024-02-26T15:22:59;17.30;;;7.40;;
56667;SDS011;42542;48.360;10.958;2024-02-26T15:26:01;16.27;;;6.10;;
56667;SDS011;42542;48.360;10.958;2024-02-26T15:29:03;10.77;;;4.32;;
56667;SDS011;42542;48.360;10.958;2024-02-26T15:32:05;10.40;;;4.37;;
56667;SDS011;42542;48.360;10.958;2024-02-26T15:35:07;10.50;;;4.60;;
56667;SDS011;42542;48.360;10.958;2024-02-26T15:38:10;11.63;;;5.10;;
56667;SDS011;42542;48.360;10.958;2024-02-26T15:41:12;18.75;;;8.30;;
56667;SDS011;42542;48.360;10.958;2024-02-26T15:44:18;11.30;;;4.90;;
56667;SDS011;42542;48.360;10.958;2024-02-26T15:47:20;35.15;;;13.45;;
56667;SDS011;42542;48.360;10.958;2024-02-26T15:50:22;53.00;;;21.02;;
56667;SDS011;42542;48.360;10.958;2024-02-26T15:53:24;45.40;;;18.53;;
56667;SDS011;42542;48.360;10.958;2024-02-26T15:56:26;20.63;;;8.48;;
56667;SDS011;42542;48.360;10.958;2024-02-26T15:59:29;15.90;;;6.25;;
56667;SDS011;42542;48.360;10.958;2024-02-26T16:02:31;13.43;;;5.97;;
56667;SDS011;42542;48.360;10.958;2024-02-26T16:05:33;11.32;;;4.65;;
56667;SDS011;42542;48.360;10.958;2024-02-26T16:08:35;12.85;;;5.07;;
56667;SDS011;42542;48.360;10.958;2024-02-26T16:11:38;11.85;;;5.38;;
56667;SDS011;42542;48.360;10.958;2024-02-26T16:17:51;14.15;;;5.50;;
56667;SDS011;42542;48.360;10.958;2024-02-26T16:20:57;12.95;;;5.32;;
56667;SDS011;42542;48.360;10.958;2024-02-26T16:23:59;13.17;;;5.37;;
56667;SDS011;42542;48.360;10.958;2024-02-26T16:27:01;16.40;;;7.38;;
56667;SDS011;42542;48.360;10.958;2024-02-26T16:30:03;18.38;;;7.13;;
56667;SDS011;42542;48.360;10.958;2024-02-26T16:33:06;16.00;;;7.70;;
56667;SDS011;42542;48.360;10.958;2024-02-26T16:36:09;14.45;;;6.47;;
56667;SDS011;42542;48.360;10.958;2024-02-26T16:39:11;20.50;;;7.18;;
56667;SDS011;42542;48.360;10.958;2024-02-26T16:42:13;15.90;;;6.68;;
56667;SDS011;42542;48.360;10.958;2024-02-26T16:45:15;25.92;;;10.82;;
56667;SDS011;42542;48.360;10.958;2024-02-26T16:48:18;26.85;;;13.20;;
56667;SDS011;42542;48.360;10.958;2024-02-26T16:51:20;20.67;;;8.50;;
56667;SDS011;42542;48.360;10.958;2024-02-26T16:54:22;16.70;;;7.07;;
56667;SDS011;42542;48.360;10.958;2024-02-26T16:57:24;28.63;;;12.60;;
56667;SDS011;42542;48.360;10.958;2024-02-26T17:00:26;24.45;;;10.35;;
56667;SDS011;42542;48.360;10.958;2024-02-26T17:03:28;21.53;;;9.13;;
56667;SDS011;42542;48.360;10.958;2024-02-26T17:06:30;18.30;;;7.75;;
56667;SDS011;42542;48.360;10.958;2024-02-26T17:09:32;19.15;;;7.88;;
56667;SDS011;42542;48.360;10.958;2024-02-26T17:12:34;17.92;;;7.68;;
56667;SDS011;42542;48.360;10.958;2024-02-26T17:15:37;17.77;;;8.05;;
56667;SDS011;42542;48.360;10.958;2024-02-26T17:18:38;22.20;;;8.10;;
56667;SDS011;42542;48.360;10.958;2024-02-26T17:21:41;23.85;;;10.07;;
56667;SDS011;42542;48.360;10.958;2024-02-26T17:24:43;22.63;;;10.00;;
56667;SDS011;42542;48.360;10.958;2024-02-26T17:27:45;21.80;;;8.80;;
56667;SDS011;42542;48.360;10.958;2024-02-26T17:30:47;18.73;;;7.70;;
56667;SDS011;42542;48.360;10.958;2024-02-26T17:33:49;15.07;;;7.23;;
56667;SDS011;42542;48.360;10.958;2024-02-26T17:36:51;20.27;;;7.35;;
56667;SDS011;42542;48.360;10.958;2024-02-26T17:39:54;14.73;;;6.10;;
56667;SDS011;42542;48.360;10.958;2024-02-26T17:42:58;12.88;;;5.35;;
56667;SDS011;42542;48.360;10.958;2024-02-26T17:46:01;12.10;;;4.85;;
56667;SDS011;42542;48.360;10.958;2024-02-26T17:49:03;17.55;;;6.95;;
56667;SDS011;42542;48.360;10.958;2024-02-26T17:52:05;14.70;;;5.88;;
56667;SDS011;42542;48.360;10.958;2024-02-26T17:55:08;12.13;;;5.10;;
56667;SDS011;42542;48.360;10.958;2024-02-26T17:58:10;12.45;;;5.38;;